createdAt,value
2015-08-02T00:00:13.590Z,95789
2015-08-02T00:00:32.014Z,95786
2015-08-02T00:00:50.529Z,95783
2015-08-02T00:01:08.951Z,95789
2015-08-02T00:01:27.485Z,95789
2015-08-02T00:01:46.047Z,95789
2015-08-02T00:02:04.625Z,95786
2015-08-02T00:02:23.141Z,95781
2015-08-02T00:02:41.627Z,95783
2015-08-02T00:03:00.143Z,95778
2015-08-02T00:03:18.674Z,95786
2015-08-02T00:03:37.159Z,95791
2015-08-02T00:03:55.691Z,95791
2015-08-02T00:04:14.222Z,95777
2015-08-02T00:04:32.706Z,95794
2015-08-02T00:04:51.208Z,95788
2015-08-02T00:05:09.583Z,95791
2015-08-02T00:05:28.255Z,95791
2015-08-02T00:05:46.743Z,95785
2015-08-02T00:06:05.383Z,95788
2015-08-02T00:06:24.133Z,95782
2015-08-02T00:06:42.760Z,95782
2015-08-02T00:07:01.166Z,95782
2015-08-02T00:07:19.745Z,95781
2015-08-02T00:07:38.463Z,95782
2015-08-02T00:07:57.106Z,95787
2015-08-02T00:08:15.590Z,95790
2015-08-02T00:08:34.090Z,95781
2015-08-02T00:08:52.684Z,95790
2015-08-02T00:09:11.375Z,95782
2015-08-02T00:09:29.828Z,95788
2015-08-02T00:09:48.312Z,95782
2015-08-02T00:10:06.735Z,95785
2015-08-02T00:10:25.360Z,95791
2015-08-02T00:10:43.829Z,95785
2015-08-02T00:11:02.188Z,95785
2015-08-02T00:11:20.691Z,95791
2015-08-02T00:11:39.160Z,95788
2015-08-02T00:11:57.816Z,95777
2015-08-02T00:12:16.458Z,95783
2015-08-02T00:12:34.864Z,95782
2015-08-02T00:12:53.317Z,95776
2015-08-02T00:13:11.833Z,95779
2015-08-02T00:13:30.303Z,95776
2015-08-02T00:13:48.913Z,95778
2015-08-02T00:14:07.444Z,95778
2015-08-02T00:14:25.837Z,95778
2015-08-02T00:14:44.399Z,95784
2015-08-02T00:15:02.946Z,95784
2015-08-02T00:15:21.321Z,95787
2015-08-02T00:15:39.995Z,95779
2015-08-02T00:15:58.370Z,95777
2015-08-02T00:16:16.823Z,95777
2015-08-02T00:16:35.435Z,95785
2015-08-02T00:16:53.889Z,95775
2015-08-02T00:17:12.373Z,95791
2015-08-02T00:17:30.795Z,95788
2015-08-02T00:17:49.218Z,95785
2015-08-02T00:18:07.608Z,95774
2015-08-02T00:18:26.015Z,95791
2015-08-02T00:18:44.486Z,95779
2015-08-02T00:19:02.877Z,95785
2015-08-02T00:19:21.564Z,95784
2015-08-02T00:19:40.127Z,95784
2015-08-02T00:19:57.863Z,95781
2015-08-02T00:20:16.254Z,95781
2015-08-02T00:20:34.801Z,95781
2015-08-02T00:20:53.490Z,95784
2015-08-02T00:21:11.990Z,95787
2015-08-02T00:21:30.381Z,95783
2015-08-02T00:21:48.787Z,95786
2015-08-02T00:22:07.211Z,95783
2015-08-02T00:22:25.602Z,95785
2015-08-02T00:22:44.024Z,95782
2015-08-02T00:23:02.432Z,95788
2015-08-02T00:23:20.822Z,95779
2015-08-02T00:23:39.354Z,95787
2015-08-02T00:23:57.807Z,95780
2015-08-02T00:24:16.403Z,95785
2015-08-02T00:24:35.153Z,95780
2015-08-02T00:24:53.856Z,95788
2015-08-02T00:25:12.498Z,95782
2015-08-02T00:25:30.951Z,95788
2015-08-02T00:25:49.530Z,95788
2015-08-02T00:26:08.076Z,95781
2015-08-02T00:26:26.626Z,95782
2015-08-02T00:26:45.001Z,95793
2015-08-02T00:27:03.408Z,95781
2015-08-02T00:27:21.910Z,95784
2015-08-02T00:27:40.316Z,95776
2015-08-02T00:27:58.738Z,95782
2015-08-02T00:28:17.160Z,95787
2015-08-02T00:28:35.661Z,95782
2015-08-02T00:28:54.051Z,95793
2015-08-02T00:29:12.473Z,95794
2015-08-02T00:29:30.991Z,95791
2015-08-02T00:29:49.381Z,95786
2015-08-02T00:30:07.756Z,95787
2015-08-02T00:30:26.163Z,95790
2015-08-02T00:30:44.618Z,95792
2015-08-02T00:31:03.133Z,95791
2015-08-02T00:31:21.602Z,95794
2015-08-02T00:31:40.168Z,95792
2015-08-02T00:31:58.574Z,95795
2015-08-02T00:32:17.011Z,95787
2015-08-02T00:32:35.402Z,95794
2015-08-02T00:32:53.965Z,95789
2015-08-02T00:33:12.372Z,95795
2015-08-02T00:33:30.903Z,95791
2015-08-02T00:33:49.297Z,95786
2015-08-02T00:34:07.750Z,95799
2015-08-02T00:34:26.140Z,95788
2015-08-02T00:34:44.672Z,95793
2015-08-02T00:35:03.142Z,95787
2015-08-02T00:35:21.689Z,95790
2015-08-02T00:35:40.174Z,95785
2015-08-02T00:35:58.707Z,95793
2015-08-02T00:36:17.207Z,95793
2015-08-02T00:36:35.644Z,95790
2015-08-02T00:36:54.097Z,95790
2015-08-02T00:37:12.490Z,95797
2015-08-02T00:37:30.881Z,95788
2015-08-02T00:37:49.271Z,95788
2015-08-02T00:38:07.664Z,95791
2015-08-02T00:38:26.086Z,95788
2015-08-02T00:38:44.461Z,95789
2015-08-02T00:39:02.836Z,95795
2015-08-02T00:39:21.275Z,95793
2015-08-02T00:39:39.807Z,95787
2015-08-02T00:39:58.338Z,95787
2015-08-02T00:40:16.824Z,95790
2015-08-02T00:40:35.262Z,95793
2015-08-02T00:40:53.590Z,95795
2015-08-02T00:41:11.980Z,95800
2015-08-02T00:41:30.451Z,95792
2015-08-02T00:41:48.826Z,95798
2015-08-02T00:42:06.592Z,95795
2015-08-02T00:42:25.126Z,95798
2015-08-02T00:42:43.923Z,95794
2015-08-02T00:43:02.298Z,95796
2015-08-02T00:43:20.909Z,95794
2015-08-02T00:43:39.425Z,95802
2015-08-02T00:43:57.972Z,95788
2015-08-02T00:44:16.394Z,95785
2015-08-02T00:44:34.786Z,95793
2015-08-02T00:44:53.396Z,95796
2015-08-02T00:45:11.880Z,95799
2015-08-02T00:45:30.396Z,95788
2015-08-02T00:45:48.850Z,95793
2015-08-02T00:46:07.569Z,95787
2015-08-02T00:46:26.022Z,95793
2015-08-02T00:46:44.462Z,95794
2015-08-02T00:47:02.853Z,95791
2015-08-02T00:47:21.337Z,95799
2015-08-02T00:47:39.915Z,95793
2015-08-02T00:47:58.463Z,95793
2015-08-02T00:48:16.932Z,95797
2015-08-02T00:48:35.526Z,95791
2015-08-02T00:48:54.043Z,95794
2015-08-02T00:49:12.481Z,95797
2015-08-02T00:49:31.215Z,95794
2015-08-02T00:49:49.606Z,95792
2015-08-02T00:50:08.062Z,95797
2015-08-02T00:50:26.499Z,95798
2015-08-02T00:50:45.249Z,95795
2015-08-02T00:51:03.735Z,95793
2015-08-02T00:51:22.188Z,95799
2015-08-02T00:51:40.563Z,95799
2015-08-02T00:51:58.954Z,95796
2015-08-02T00:52:17.472Z,95794
2015-08-02T00:52:36.128Z,95796
2015-08-02T00:52:54.613Z,95797
2015-08-02T00:53:13.255Z,95791
2015-08-02T00:53:31.709Z,95802
2015-08-02T00:53:50.318Z,95796
2015-08-02T00:54:08.851Z,95801
2015-08-02T00:54:27.273Z,95790
2015-08-02T00:54:45.679Z,95801
2015-08-02T00:55:04.148Z,95799
2015-08-02T00:55:22.525Z,95799
2015-08-02T00:55:41.025Z,95793
2015-08-02T00:55:59.416Z,95797
2015-08-02T00:56:17.822Z,95798
2015-08-02T00:56:35.621Z,95783
2015-08-02T00:56:54.293Z,95806
2015-08-02T00:57:12.777Z,95789
2015-08-02T00:57:31.170Z,95797
2015-08-02T00:57:49.576Z,95800
2015-08-02T00:58:08.154Z,95800
2015-08-02T00:58:26.592Z,95789
2015-08-02T00:58:45.297Z,95783
2015-08-02T00:59:03.703Z,95795
2015-08-02T00:59:22.156Z,95795
2015-08-02T00:59:40.081Z,95803
2015-08-02T00:59:58.472Z,95805
2015-08-02T01:00:16.878Z,95803
2015-08-02T01:00:35.253Z,95794
2015-08-02T01:00:53.660Z,95805
2015-08-02T01:01:12.051Z,95798
2015-08-02T01:01:30.488Z,95792
2015-08-02T01:01:49.006Z,95801
2015-08-02T01:02:07.459Z,95801
2015-08-02T01:02:25.975Z,95798
2015-08-02T01:02:44.412Z,95798
2015-08-02T01:03:02.806Z,95807
2015-08-02T01:03:21.321Z,95807
2015-08-02T01:03:39.759Z,95807
2015-08-02T01:03:58.245Z,95799
2015-08-02T01:04:16.714Z,95799
2015-08-02T01:04:35.167Z,95805
2015-08-02T01:04:53.605Z,95806
2015-08-02T01:05:12.013Z,95794
2015-08-02T01:05:30.482Z,95797
2015-08-02T01:05:48.857Z,95796
2015-08-02T01:06:07.249Z,95797
2015-08-02T01:06:25.687Z,95799
2015-08-02T01:06:44.062Z,95794
2015-08-02T01:07:02.562Z,95794
2015-08-02T01:07:21.078Z,95797
2015-08-02T01:07:39.563Z,95799
2015-08-02T01:07:58.094Z,95793
2015-08-02T01:08:16.628Z,95796
2015-08-02T01:08:35.003Z,95788
2015-08-02T01:08:53.613Z,95794
2015-08-02T01:09:12.081Z,95797
2015-08-02T01:09:30.457Z,95803
2015-08-02T01:09:48.973Z,95794
2015-08-02T01:10:07.551Z,95797
2015-08-02T01:10:25.929Z,95794
2015-08-02T01:10:44.304Z,95794
2015-08-02T01:11:02.679Z,95797
2015-08-02T01:11:21.085Z,95794
2015-08-02T01:11:39.478Z,95788
2015-08-02T01:11:57.884Z,95785
2015-08-02T01:12:16.369Z,95794
2015-08-02T01:12:34.778Z,95796
2015-08-02T01:12:53.309Z,95796
2015-08-02T01:13:11.700Z,95793
2015-08-02T01:13:30.090Z,95799
2015-08-02T01:13:48.498Z,95787
2015-08-02T01:14:06.935Z,95799
2015-08-02T01:14:26.935Z,95801
2015-08-02T01:14:45.343Z,95794
2015-08-02T01:15:03.750Z,95794
2015-08-02T01:15:22.171Z,95794
2015-08-02T01:15:40.562Z,95791
2015-08-02T01:15:59.173Z,95791
2015-08-02T01:16:17.564Z,95791
2015-08-02T01:16:35.986Z,95805
2015-08-02T01:16:54.363Z,95785
2015-08-02T01:17:12.894Z,95799
2015-08-02T01:17:31.316Z,95790
2015-08-02T01:17:49.707Z,95793
2015-08-02T01:18:08.162Z,95793
2015-08-02T01:18:26.584Z,95790
2015-08-02T01:18:45.115Z,95785
2015-08-02T01:19:03.524Z,95782
2015-08-02T01:19:21.930Z,95796
2015-08-02T01:19:40.399Z,95798
2015-08-02T01:19:58.805Z,95795
2015-08-02T01:20:17.323Z,95784
2015-08-02T01:20:35.729Z,95793
2015-08-02T01:20:54.182Z,95782
2015-08-02T01:21:12.575Z,95787
2015-08-02T01:21:30.966Z,95798
2015-08-02T01:21:49.372Z,95798
2015-08-02T01:22:07.809Z,95798
2015-08-02T01:22:26.249Z,95789
2015-08-02T01:22:44.655Z,95784
2015-08-02T01:23:03.030Z,95797
2015-08-02T01:23:21.423Z,95797
2015-08-02T01:23:40.017Z,95792
2015-08-02T01:23:58.423Z,95800
2015-08-02T01:24:16.813Z,95795
2015-08-02T01:24:35.456Z,95795
2015-08-02T01:24:53.831Z,95793
2015-08-02T01:25:12.440Z,95785
2015-08-02T01:25:30.849Z,95801
2015-08-02T01:25:49.255Z,95798
2015-08-02T01:26:07.661Z,95798
2015-08-02T01:26:26.052Z,95798
2015-08-02T01:26:44.648Z,95789
2015-08-02T01:27:03.023Z,95797
2015-08-02T01:27:21.429Z,95797
2015-08-02T01:27:39.806Z,95800
2015-08-02T01:27:58.212Z,95795
2015-08-02T01:28:16.790Z,95801
2015-08-02T01:28:35.196Z,95795
2015-08-02T01:28:53.589Z,95793
2015-08-02T01:29:11.980Z,95785
2015-08-02T01:29:30.448Z,95800
2015-08-02T01:29:48.841Z,95794
2015-08-02T01:30:07.294Z,95790
2015-08-02T01:30:25.685Z,95799
2015-08-02T01:30:44.091Z,95799
2015-08-02T01:31:02.546Z,95804
2015-08-02T01:31:20.484Z,95801
2015-08-02T01:31:38.999Z,95793
2015-08-02T01:31:57.392Z,95799
2015-08-02T01:32:15.783Z,95798
2015-08-02T01:32:34.173Z,95798
2015-08-02T01:32:52.704Z,95798
2015-08-02T01:33:11.254Z,95798
2015-08-02T01:33:29.692Z,95803
2015-08-02T01:33:48.145Z,95803
2015-08-02T01:34:06.568Z,95789
2015-08-02T01:34:24.974Z,95798
2015-08-02T01:34:43.490Z,95809
2015-08-02T01:35:01.865Z,95803
2015-08-02T01:35:20.273Z,95806
2015-08-02T01:35:38.695Z,95803
2015-08-02T01:35:57.117Z,95801
2015-08-02T01:36:15.651Z,95800
2015-08-02T01:36:34.198Z,95800
2015-08-02T01:36:52.620Z,95795
2015-08-02T01:37:11.026Z,95795
2015-08-02T01:37:29.418Z,95800
2015-08-02T01:37:47.839Z,95803
2015-08-02T01:38:06.293Z,95808
2015-08-02T01:38:24.748Z,95808
2015-08-02T01:38:43.373Z,95794
2015-08-02T01:39:01.951Z,95802
2015-08-02T01:39:20.626Z,95797
2015-08-02T01:39:39.032Z,95802
2015-08-02T01:39:57.516Z,95802
2015-08-02T01:40:16.094Z,95802
2015-08-02T01:40:34.612Z,95792
2015-08-02T01:40:53.346Z,95795
2015-08-02T01:41:11.721Z,95812
2015-08-02T01:41:30.302Z,95801
2015-08-02T01:41:48.692Z,95793
2015-08-02T01:42:07.302Z,95798
2015-08-02T01:42:25.989Z,95798
2015-08-02T01:42:44.397Z,95804
2015-08-02T01:43:02.788Z,95804
2015-08-02T01:43:21.397Z,95803
2015-08-02T01:43:40.007Z,95803
2015-08-02T01:43:58.399Z,95800
2015-08-02T01:44:16.868Z,95801
2015-08-02T01:44:35.306Z,95797
2015-08-02T01:44:53.746Z,95803
2015-08-02T01:45:11.527Z,95800
2015-08-02T01:45:29.934Z,95803
2015-08-02T01:45:48.652Z,95797
2015-08-02T01:46:07.138Z,95809
2015-08-02T01:46:25.825Z,95804
2015-08-02T01:46:44.450Z,95798
2015-08-02T01:47:03.108Z,95801
2015-08-02T01:47:21.812Z,95804
2015-08-02T01:47:40.546Z,95801
2015-08-02T01:47:59.126Z,95801
2015-08-02T01:48:17.579Z,95809
2015-08-02T01:48:36.204Z,95809
2015-08-02T01:48:55.001Z,95806
2015-08-02T01:49:13.409Z,95809
2015-08-02T01:49:31.956Z,95809
2015-08-02T01:49:50.456Z,95801
2015-08-02T01:50:09.081Z,95806
2015-08-02T01:50:27.709Z,95806
2015-08-02T01:50:46.303Z,95803
2015-08-02T01:51:04.897Z,95803
2015-08-02T01:51:23.351Z,95794
2015-08-02T01:51:42.007Z,95800
2015-08-02T01:52:00.601Z,95797
2015-08-02T01:52:19.007Z,95809
2015-08-02T01:52:37.557Z,95809
2015-08-02T01:52:55.932Z,95798
2015-08-02T01:53:14.369Z,95801
2015-08-02T01:53:32.762Z,95798
2015-08-02T01:53:51.621Z,95798
2015-08-02T01:54:10.106Z,95803
2015-08-02T01:54:28.920Z,95806
2015-08-02T01:54:47.295Z,95803
2015-08-02T01:55:05.733Z,95803
2015-08-02T01:55:24.170Z,95797
2015-08-02T01:55:42.891Z,95794
2015-08-02T01:56:01.282Z,95806
2015-08-02T01:56:19.766Z,95800
2015-08-02T01:56:37.750Z,95803
2015-08-02T01:56:56.471Z,95797
2015-08-02T01:57:15.018Z,95803
2015-08-02T01:57:33.737Z,95806
2015-08-02T01:57:52.254Z,95800
2015-08-02T01:58:10.973Z,95806
2015-08-02T01:58:29.661Z,95800
2015-08-02T01:58:48.256Z,95814
2015-08-02T01:59:06.647Z,95806
2015-08-02T01:59:25.350Z,95806
2015-08-02T01:59:44.741Z,95792
2015-08-02T02:00:03.118Z,95794
2015-08-02T02:00:21.524Z,95803
2015-08-02T02:00:40.196Z,95794
2015-08-02T02:00:58.651Z,95797
2015-08-02T02:01:17.026Z,95806
2015-08-02T02:01:35.557Z,95809
2015-08-02T02:01:54.104Z,95797
2015-08-02T02:02:12.951Z,95800
2015-08-02T02:02:31.545Z,95803
2015-08-02T02:02:50.310Z,95811
2015-08-02T02:03:08.749Z,95800
2015-08-02T02:03:27.218Z,95806
2015-08-02T02:03:46.061Z,95805
2015-08-02T02:04:04.468Z,95803
2015-08-02T02:04:23.220Z,95803
2015-08-02T02:04:41.766Z,95803
2015-08-02T02:05:00.501Z,95794
2015-08-02T02:05:19.003Z,95803
2015-08-02T02:05:37.456Z,95808
2015-08-02T02:05:55.909Z,95799
2015-08-02T02:06:14.518Z,95799
2015-08-02T02:06:33.256Z,95799
2015-08-02T02:06:51.896Z,95802
2015-08-02T02:07:10.412Z,95802
2015-08-02T02:07:29.085Z,95791
2015-08-02T02:07:47.882Z,95814
2015-08-02T02:08:06.647Z,95796
2015-08-02T02:08:25.212Z,95805
2015-08-02T02:08:43.603Z,95804
2015-08-02T02:09:02.087Z,95804
2015-08-02T02:09:20.618Z,95804
2015-08-02T02:09:39.043Z,95798
2015-08-02T02:09:57.559Z,95807
2015-08-02T02:10:16.262Z,95801
2015-08-02T02:10:34.793Z,95807
2015-08-02T02:10:53.326Z,95801
2015-08-02T02:11:11.983Z,95804
2015-08-02T02:11:30.483Z,95793
2015-08-02T02:11:49.125Z,95802
2015-08-02T02:12:07.813Z,95807
2015-08-02T02:12:26.110Z,95804
2015-08-02T02:12:44.594Z,95816
2015-08-02T02:13:03.112Z,95796
2015-08-02T02:13:21.737Z,95801
2015-08-02T02:13:40.221Z,95801
2015-08-02T02:13:58.614Z,95807
2015-08-02T02:14:17.020Z,95805
2015-08-02T02:14:35.629Z,95799
2015-08-02T02:14:54.114Z,95802
2015-08-02T02:15:12.834Z,95802
2015-08-02T02:15:31.303Z,95807
2015-08-02T02:15:49.741Z,95797
2015-08-02T02:16:08.321Z,95805
2015-08-02T02:16:26.789Z,95802
2015-08-02T02:16:45.274Z,95802
2015-08-02T02:17:03.727Z,95805
2015-08-02T02:17:22.260Z,95808
2015-08-02T02:17:40.698Z,95797
2015-08-02T02:17:59.370Z,95802
2015-08-02T02:18:18.044Z,95803
2015-08-02T02:18:36.654Z,95800
2015-08-02T02:18:55.341Z,95800
2015-08-02T02:19:13.795Z,95800
2015-08-02T02:19:32.499Z,95806
2015-08-02T02:19:51.358Z,95812
2015-08-02T02:20:09.827Z,95809
2015-08-02T02:20:28.314Z,95810
2015-08-02T02:20:46.752Z,95807
2015-08-02T02:21:05.267Z,95809
2015-08-02T02:21:23.673Z,95805
2015-08-02T02:21:42.065Z,95805
2015-08-02T02:22:00.690Z,95799
2015-08-02T02:22:19.315Z,95808
2015-08-02T02:22:37.958Z,95799
2015-08-02T02:22:56.426Z,95805
2015-08-02T02:23:15.020Z,95807
2015-08-02T02:23:33.411Z,95807
2015-08-02T02:23:51.851Z,95807
2015-08-02T02:24:10.383Z,95801
2015-08-02T02:24:29.023Z,95816
2015-08-02T02:24:47.525Z,95805
2015-08-02T02:25:05.603Z,95811
2015-08-02T02:25:24.119Z,95805
2015-08-02T02:25:42.869Z,95810
2015-08-02T02:26:01.449Z,95805
2015-08-02T02:26:20.121Z,95805
2015-08-02T02:26:38.871Z,95799
2015-08-02T02:26:57.420Z,95808
2015-08-02T02:27:15.982Z,95802
2015-08-02T02:27:34.607Z,95799
2015-08-02T02:27:53.014Z,95804
2015-08-02T02:28:11.406Z,95807
2015-08-02T02:28:29.969Z,95793
2015-08-02T02:28:48.359Z,95810
2015-08-02T02:29:06.830Z,95805
2015-08-02T02:29:25.205Z,95799
2015-08-02T02:29:43.783Z,95802
2015-08-02T02:30:02.189Z,95816
2015-08-02T02:30:20.613Z,95793
2015-08-02T02:30:38.988Z,95793
2015-08-02T02:30:57.582Z,95805
2015-08-02T02:31:16.068Z,95810
2015-08-02T02:31:34.600Z,95804
2015-08-02T02:31:53.053Z,95802
2015-08-02T02:32:11.506Z,95807
2015-08-02T02:32:30.149Z,95805
2015-08-02T02:32:48.633Z,95799
2015-08-02T02:33:07.070Z,95804
2015-08-02T02:33:25.744Z,95810
2015-08-02T02:33:44.229Z,95801
2015-08-02T02:34:02.682Z,95810
2015-08-02T02:34:21.197Z,95804
2015-08-02T02:34:39.731Z,95812
2015-08-02T02:34:57.653Z,95804
2015-08-02T02:35:16.496Z,95810
2015-08-02T02:35:35.296Z,95813
2015-08-02T02:35:53.906Z,95818
2015-08-02T02:36:12.812Z,95815
2015-08-02T02:36:31.188Z,95807
2015-08-02T02:36:49.625Z,95804
2015-08-02T02:37:08.266Z,95809
2015-08-02T02:37:26.813Z,95815
2015-08-02T02:37:45.331Z,95809
2015-08-02T02:38:03.800Z,95809
2015-08-02T02:38:22.191Z,95806
2015-08-02T02:38:40.628Z,95807
2015-08-02T02:38:59.129Z,95804
2015-08-02T02:39:17.536Z,95807
2015-08-02T02:39:36.286Z,95802
2015-08-02T02:39:55.007Z,95811
2015-08-02T02:40:13.382Z,95810
2015-08-02T02:40:31.835Z,95813
2015-08-02T02:40:50.210Z,95804
2015-08-02T02:41:08.775Z,95810
2015-08-02T02:41:27.228Z,95815
2015-08-02T02:41:45.697Z,95820
2015-08-02T02:42:04.183Z,95812
2015-08-02T02:42:22.761Z,95812
2015-08-02T02:42:41.449Z,95812
2015-08-02T02:42:59.950Z,95809
2015-08-02T02:43:18.669Z,95812
2015-08-02T02:43:37.278Z,95809
2015-08-02T02:43:55.778Z,95797
2015-08-02T02:44:14.204Z,95806
2015-08-02T02:44:32.626Z,95817
2015-08-02T02:44:51.016Z,95814
2015-08-02T02:45:09.673Z,95809
2015-08-02T02:45:28.502Z,95815
2015-08-02T02:45:46.986Z,95815
2015-08-02T02:46:05.689Z,95818
2015-08-02T02:46:24.222Z,95815
2015-08-02T02:46:43.019Z,95809
2015-08-02T02:47:01.613Z,95814
2015-08-02T02:47:20.319Z,95817
2015-08-02T02:47:38.757Z,95803
2015-08-02T02:47:57.241Z,95806
2015-08-02T02:48:15.725Z,95809
2015-08-02T02:48:34.259Z,95817
2015-08-02T02:48:52.759Z,95815
2015-08-02T02:49:11.243Z,95815
2015-08-02T02:49:30.338Z,95817
2015-08-02T02:49:49.010Z,95809
2015-08-02T02:50:07.853Z,95814
2015-08-02T02:50:26.463Z,95814
2015-08-02T02:50:44.480Z,95808
2015-08-02T02:51:03.277Z,95822
2015-08-02T02:51:21.762Z,95808
2015-08-02T02:51:40.279Z,95808
2015-08-02T02:51:58.826Z,95814
2015-08-02T02:52:17.232Z,95817
2015-08-02T02:52:36.186Z,95815
2015-08-02T02:52:54.642Z,95826
2015-08-02T02:53:13.204Z,95817
2015-08-02T02:53:32.189Z,95817
2015-08-02T02:53:50.674Z,95828
2015-08-02T02:54:09.221Z,95814
2015-08-02T02:54:27.799Z,95817
2015-08-02T02:54:46.440Z,95817
2015-08-02T02:55:05.161Z,95819
2015-08-02T02:55:23.599Z,95808
2015-08-02T02:55:41.880Z,95826
2015-08-02T02:56:00.755Z,95817
2015-08-02T02:56:19.257Z,95823
2015-08-02T02:56:37.976Z,95820
2015-08-02T02:56:56.445Z,95820
2015-08-02T02:57:15.290Z,95820
2015-08-02T02:57:34.056Z,95823
2015-08-02T02:57:52.681Z,95817
2015-08-02T02:58:11.495Z,95825
2015-08-02T02:58:29.980Z,95820
2015-08-02T02:58:48.589Z,95815
2015-08-02T02:59:07.120Z,95826
2015-08-02T02:59:26.107Z,95820
2015-08-02T02:59:44.513Z,95826
2015-08-02T03:00:03.310Z,95824
2015-08-02T03:00:21.797Z,95832
2015-08-02T03:00:40.485Z,95829
2015-08-02T03:00:59.000Z,95827
2015-08-02T03:01:17.563Z,95827
2015-08-02T03:01:36.346Z,95829
2015-08-02T03:01:54.784Z,95824
2015-08-02T03:02:13.627Z,95824
2015-08-02T03:02:32.034Z,95821
2015-08-02T03:02:50.566Z,95827
2015-08-02T03:03:09.253Z,95824
2015-08-02T03:03:27.707Z,95824
2015-08-02T03:03:46.302Z,95822
2015-08-02T03:04:04.912Z,95824
2015-08-02T03:04:23.287Z,95827
2015-08-02T03:04:41.755Z,95832
2015-08-02T03:05:00.258Z,95829
2015-08-02T03:05:18.883Z,95815
2015-08-02T03:05:37.508Z,95823
2015-08-02T03:05:55.979Z,95820
2015-08-02T03:06:14.604Z,95825
2015-08-02T03:06:33.104Z,95817
2015-08-02T03:06:51.886Z,95826
2015-08-02T03:07:10.527Z,95829
2015-08-02T03:07:29.168Z,95817
2015-08-02T03:07:47.793Z,95823
2015-08-02T03:08:06.249Z,95820
2015-08-02T03:08:24.624Z,95823
2015-08-02T03:08:43.608Z,95815
2015-08-02T03:09:01.483Z,95820
2015-08-02T03:09:19.938Z,95820
2015-08-02T03:09:38.470Z,95817
2015-08-02T03:09:56.876Z,95814
2015-08-02T03:10:15.456Z,95817
2015-08-02T03:10:33.847Z,95825
2015-08-02T03:10:52.628Z,95820
2015-08-02T03:11:11.143Z,95817
2015-08-02T03:11:29.552Z,95817
2015-08-02T03:11:48.302Z,95822
2015-08-02T03:12:06.645Z,95820
2015-08-02T03:12:25.179Z,95830
2015-08-02T03:12:43.913Z,95822
2015-08-02T03:13:02.491Z,95824
2015-08-02T03:13:21.118Z,95827
2015-08-02T03:13:39.868Z,95827
2015-08-02T03:13:58.493Z,95822
2015-08-02T03:14:17.134Z,95824
2015-08-02T03:14:35.589Z,95816
2015-08-02T03:14:54.245Z,95825
2015-08-02T03:15:12.901Z,95827
2015-08-02T03:15:31.513Z,95810
2015-08-02T03:15:50.107Z,95830
2015-08-02T03:16:08.747Z,95824
2015-08-02T03:16:27.153Z,95827
2015-08-02T03:16:45.922Z,95825
2015-08-02T03:17:04.344Z,95827
2015-08-02T03:17:22.969Z,95824
2015-08-02T03:17:41.767Z,95819
2015-08-02T03:18:00.142Z,95830
2015-08-02T03:18:18.829Z,95816
2015-08-02T03:18:37.564Z,95819
2015-08-02T03:18:56.160Z,95827
2015-08-02T03:19:14.645Z,95830
2015-08-02T03:19:33.442Z,95827
2015-08-02T03:19:51.176Z,95824
2015-08-02T03:20:09.725Z,95825
2015-08-02T03:20:28.303Z,95819
2015-08-02T03:20:46.678Z,95839
2015-08-02T03:21:05.086Z,95816
2015-08-02T03:21:23.555Z,95819
2015-08-02T03:21:42.024Z,95824
2015-08-02T03:22:00.602Z,95822
2015-08-02T03:22:19.385Z,95833
2015-08-02T03:22:37.276Z,95824
2015-08-02T03:22:55.838Z,95830
2015-08-02T03:23:14.309Z,95825
2015-08-02T03:23:32.684Z,95822
2015-08-02T03:23:51.090Z,95820
2015-08-02T03:24:09.731Z,95831
2015-08-02T03:24:28.311Z,95833
2015-08-02T03:24:46.749Z,95830
2015-08-02T03:25:04.592Z,95828
2015-08-02T03:25:23.377Z,95825
2015-08-02T03:25:41.814Z,95827
2015-08-02T03:26:00.205Z,95833
2015-08-02T03:26:18.939Z,95833
2015-08-02T03:26:37.518Z,95825
2015-08-02T03:26:56.268Z,95832
2015-08-02T03:27:14.846Z,95828
2015-08-02T03:27:33.927Z,95825
2015-08-02T03:27:52.552Z,95824
2015-08-02T03:28:10.943Z,95830
2015-08-02T03:28:29.586Z,95831
2015-08-02T03:28:48.195Z,95827
2015-08-02T03:29:06.601Z,95827
2015-08-02T03:29:25.851Z,95824
2015-08-02T03:29:44.446Z,95824
2015-08-02T03:30:02.884Z,95827
2015-08-02T03:30:21.743Z,95833
2015-08-02T03:30:40.215Z,95827
2015-08-02T03:30:58.637Z,95838
2015-08-02T03:31:17.246Z,95829
2015-08-02T03:31:35.871Z,95835
2015-08-02T03:31:54.309Z,95830
2015-08-02T03:32:12.747Z,95836
2015-08-02T03:32:31.169Z,95833
2015-08-02T03:32:49.936Z,95833
2015-08-02T03:33:08.483Z,95839
2015-08-02T03:33:27.077Z,95827
2015-08-02T03:33:45.954Z,95824
2015-08-02T03:34:04.485Z,95834
2015-08-02T03:34:23.204Z,95829
2015-08-02T03:34:41.032Z,95838
2015-08-02T03:34:59.487Z,95834
2015-08-02T03:35:17.862Z,95837
2015-08-02T03:35:36.284Z,95837
2015-08-02T03:35:54.847Z,95831
2015-08-02T03:36:13.256Z,95837
2015-08-02T03:36:31.693Z,95837
2015-08-02T03:36:50.318Z,95831
2015-08-02T03:37:08.836Z,95835
2015-08-02T03:37:27.211Z,95833
2015-08-02T03:37:45.680Z,95839
2015-08-02T03:38:04.180Z,95836
2015-08-02T03:38:22.854Z,95841
2015-08-02T03:38:41.369Z,95844
2015-08-02T03:38:59.885Z,95841
2015-08-02T03:39:18.278Z,95826
2015-08-02T03:39:36.856Z,95840
2015-08-02T03:39:55.340Z,95837
2015-08-02T03:40:13.746Z,95834
2015-08-02T03:40:32.232Z,95837
2015-08-02T03:40:50.779Z,95829
2015-08-02T03:41:09.169Z,95835
2015-08-02T03:41:27.594Z,95833
2015-08-02T03:41:46.235Z,95839
2015-08-02T03:42:04.735Z,95836
2015-08-02T03:42:23.518Z,95839
2015-08-02T03:42:41.987Z,95841
2015-08-02T03:43:00.596Z,95833
2015-08-02T03:43:19.065Z,95833
2015-08-02T03:43:37.677Z,95839
2015-08-02T03:43:56.068Z,95844
2015-08-02T03:44:14.818Z,95839
2015-08-02T03:44:33.288Z,95847
2015-08-02T03:44:51.897Z,95838
2015-08-02T03:45:10.506Z,95843
2015-08-02T03:45:28.944Z,95840
2015-08-02T03:45:47.759Z,95846
2015-08-02T03:46:06.337Z,95846
2015-08-02T03:46:24.869Z,95838
2015-08-02T03:46:43.275Z,95847
2015-08-02T03:47:01.855Z,95845
2015-08-02T03:47:20.433Z,95839
2015-08-02T03:47:38.886Z,95833
2015-08-02T03:47:57.341Z,95838
2015-08-02T03:48:15.951Z,95844
2015-08-02T03:48:34.482Z,95846
2015-08-02T03:48:52.904Z,95846
2015-08-02T03:49:11.297Z,95846
2015-08-02T03:49:29.968Z,95843
2015-08-02T03:49:48.609Z,95849
2015-08-02T03:50:07.408Z,95846
2015-08-02T03:50:26.080Z,95843
2015-08-02T03:50:44.814Z,95840
2015-08-02T03:51:03.269Z,95845
2015-08-02T03:51:21.785Z,95857
2015-08-02T03:51:39.582Z,95843
2015-08-02T03:51:58.316Z,95844
2015-08-02T03:52:17.130Z,95856
2015-08-02T03:52:35.552Z,95855
2015-08-02T03:52:54.098Z,95849
2015-08-02T03:53:12.473Z,95855
2015-08-02T03:53:31.116Z,95849
2015-08-02T03:53:49.491Z,95854
2015-08-02T03:54:08.304Z,95849
2015-08-02T03:54:26.072Z,95855
2015-08-02T03:54:44.572Z,95851
2015-08-02T03:55:03.432Z,95853
2015-08-02T03:55:21.887Z,95851
2015-08-02T03:55:40.262Z,95851
2015-08-02T03:55:58.871Z,95855
2015-08-02T03:56:17.387Z,95850
2015-08-02T03:56:35.951Z,95847
2015-08-02T03:56:54.389Z,95850
2015-08-02T03:57:12.904Z,95850
2015-08-02T03:57:31.326Z,95856
2015-08-02T03:57:49.735Z,95859
2015-08-02T03:58:08.220Z,95856
2015-08-02T03:58:26.689Z,95850